sensor_id;sensor_type;location;lat;lon;timestamp;P1;durP1;ratioP1;P2;durP2;ratioP2
5077;SDS011;2557;51.390;7.494;2024-02-04T00:00:35;11.93;;;9.60;;
5077;SDS011;2557;51.390;7.494;2024-02-04T00:03:02;11.27;;;8.93;;
5077;SDS011;2557;51.390;7.494;2024-02-04T00:05:28;12.10;;;9.50;;
5077;SDS011;2557;51.390;7.494;2024-02-04T00:07:55;14.13;;;9.60;;
5077;SDS011;2557;51.390;7.494;2024-02-04T00:10:21;10.90;;;8.13;;
5077;SDS011;2557;51.390;7.494;2024-02-04T00:12:47;9.30;;;7.33;;
5077;SDS011;2557;51.390;7.494;2024-02-04T00:15:13;8.90;;;7.40;;
5077;SDS011;2557;51.390;7.494;2024-02-04T00:17:39;9.03;;;8.00;;
5077;SDS011;2557;51.390;7.494;2024-02-04T00:20:05;8.93;;;8.13;;
5077;SDS011;2557;51.390;7.494;2024-02-04T00:22:32;12.90;;;7.50;;
5077;SDS011;2557;51.390;7.494;2024-02-04T00:24:59;11.77;;;8.40;;
5077;SDS011;2557;51.390;7.494;2024-02-04T00:27:30;8.33;;;7.43;;
5077;SDS011;2557;51.390;7.494;2024-02-04T00:29:56;10.50;;;7.50;;
5077;SDS011;2557;51.390;7.494;2024-02-04T00:32:22;8.10;;;7.30;;
5077;SDS011;2557;51.390;7.494;2024-02-04T00:34:48;8.10;;;6.70;;
5077;SDS011;2557;51.390;7.494;2024-02-04T00:37:14;8.00;;;7.20;;
5077;SDS011;2557;51.390;7.494;2024-02-04T00:39:40;9.20;;;6.97;;
5077;SDS011;2557;51.390;7.494;2024-02-04T00:42:06;8.20;;;7.23;;
5077;SDS011;2557;51.390;7.494;2024-02-04T00:44:32;7.67;;;6.90;;
5077;SDS011;2557;51.390;7.494;2024-02-04T00:46:58;9.57;;;7.40;;
5077;SDS011;2557;51.390;7.494;2024-02-04T00:49:24;8.00;;;6.50;;
5077;SDS011;2557;51.390;7.494;2024-02-04T00:51:51;7.03;;;6.30;;
5077;SDS011;2557;51.390;7.494;2024-02-04T00:54:17;8.80;;;7.20;;
5077;SDS011;2557;51.390;7.494;2024-02-04T00:56:43;7.87;;;7.03;;
5077;SDS011;2557;51.390;7.494;2024-02-04T00:59:09;10.40;;;7.33;;
5077;SDS011;2557;51.390;7.494;2024-02-04T01:01:36;6.27;;;5.67;;
5077;SDS011;2557;51.390;7.494;2024-02-04T01:04:03;7.50;;;5.90;;
5077;SDS011;2557;51.390;7.494;2024-02-04T01:06:29;7.17;;;6.47;;
5077;SDS011;2557;51.390;7.494;2024-02-04T01:08:56;6.53;;;5.90;;
5077;SDS011;2557;51.390;7.494;2024-02-04T01:11:22;6.60;;;5.77;;
5077;SDS011;2557;51.390;7.494;2024-02-04T01:13:48;6.90;;;6.17;;
5077;SDS011;2557;51.390;7.494;2024-02-04T01:16:14;6.67;;;5.90;;
5077;SDS011;2557;51.390;7.494;2024-02-04T01:18:40;6.20;;;5.50;;
5077;SDS011;2557;51.390;7.494;2024-02-04T01:21:06;5.90;;;5.40;;
5077;SDS011;2557;51.390;7.494;2024-02-04T01:23:34;7.50;;;5.40;;
5077;SDS011;2557;51.390;7.494;2024-02-04T01:25:59;6.63;;;5.97;;
5077;SDS011;2557;51.390;7.494;2024-02-04T01:28:25;4.50;;;4.20;;
5077;SDS011;2557;51.390;7.494;2024-02-04T01:30:51;5.93;;;3.80;;
5077;SDS011;2557;51.390;7.494;2024-02-04T01:33:17;3.83;;;3.53;;
5077;SDS011;2557;51.390;7.494;2024-02-04T01:35:43;4.33;;;3.77;;
5077;SDS011;2557;51.390;7.494;2024-02-04T01:38:09;3.43;;;3.13;;
5077;SDS011;2557;51.390;7.494;2024-02-04T01:40:35;3.50;;;3.20;;
5077;SDS011;2557;51.390;7.494;2024-02-04T01:43:01;2.57;;;2.47;;
5077;SDS011;2557;51.390;7.494;2024-02-04T01:45:27;5.83;;;2.40;;
5077;SDS011;2557;51.390;7.494;2024-02-04T01:47:53;2.13;;;2.00;;
5077;SDS011;2557;51.390;7.494;2024-02-04T01:50:20;2.17;;;2.00;;
5077;SDS011;2557;51.390;7.494;2024-02-04T01:52:46;2.07;;;1.97;;
5077;SDS011;2557;51.390;7.494;2024-02-04T01:55:13;1.60;;;1.50;;
5077;SDS011;2557;51.390;7.494;2024-02-04T01:57:39;1.90;;;1.80;;
5077;SDS011;2557;51.390;7.494;2024-02-04T02:00:06;1.50;;;1.40;;
5077;SDS011;2557;51.390;7.494;2024-02-04T02:02:40;6.50;;;1.60;;
5077;SDS011;2557;51.390;7.494;2024-02-04T02:05:07;1.77;;;1.60;;
5077;SDS011;2557;51.390;7.494;2024-02-04T02:07:34;2.40;;;1.20;;
5077;SDS011;2557;51.390;7.494;2024-02-04T02:10:00;1.50;;;1.40;;
5077;SDS011;2557;51.390;7.494;2024-02-04T02:12:27;2.00;;;1.20;;
5077;SDS011;2557;51.390;7.494;2024-02-04T02:15:11;1.50;;;1.40;;
5077;SDS011;2557;51.390;7.494;2024-02-04T02:18:25;1.47;;;1.37;;
5077;SDS011;2557;51.390;7.494;2024-02-04T02:25:47;1.33;;;1.23;;
5077;SDS011;2557;51.390;7.494;2024-02-04T02:28:14;1.40;;;1.30;;
5077;SDS011;2557;51.390;7.494;2024-02-04T02:30:40;1.93;;;1.83;;
5077;SDS011;2557;51.390;7.494;2024-02-04T02:33:06;1.50;;;1.40;;
5077;SDS011;2557;51.390;7.494;2024-02-04T02:35:33;1.60;;;1.50;;
5077;SDS011;2557;51.390;7.494;2024-02-04T02:38:03;1.93;;;1.70;;
5077;SDS011;2557;51.390;7.494;2024-02-04T02:43:05;2.60;;;2.40;;
5077;SDS011;2557;51.390;7.494;2024-02-04T02:45:31;2.80;;;2.60;;
5077;SDS011;2557;51.390;7.494;2024-02-04T02:47:57;3.40;;;2.80;;
5077;SDS011;2557;51.390;7.494;2024-02-04T02:50:24;3.20;;;2.90;;
5077;SDS011;2557;51.390;7.494;2024-02-04T02:52:50;4.67;;;4.37;;
5077;SDS011;2557;51.390;7.494;2024-02-04T02:55:16;4.53;;;4.13;;
5077;SDS011;2557;51.390;7.494;2024-02-04T02:57:42;4.63;;;4.33;;
5077;SDS011;2557;51.390;7.494;2024-02-04T03:00:08;4.37;;;4.07;;
5077;SDS011;2557;51.390;7.494;2024-02-04T03:02:34;4.20;;;3.90;;
5077;SDS011;2557;51.390;7.494;2024-02-04T03:05:00;4.63;;;4.23;;
5077;SDS011;2557;51.390;7.494;2024-02-04T03:07:26;5.40;;;5.00;;
5077;SDS011;2557;51.390;7.494;2024-02-04T03:09:52;4.63;;;4.23;;
5077;SDS011;2557;51.390;7.494;2024-02-04T03:12:19;4.77;;;4.40;;
5077;SDS011;2557;51.390;7.494;2024-02-04T03:14:45;4.43;;;4.03;;
5077;SDS011;2557;51.390;7.494;2024-02-04T03:17:11;4.50;;;4.13;;
5077;SDS011;2557;51.390;7.494;2024-02-04T03:19:38;5.60;;;5.10;;
5077;SDS011;2557;51.390;7.494;2024-02-04T03:22:04;5.80;;;5.30;;
5077;SDS011;2557;51.390;7.494;2024-02-04T03:24:30;5.73;;;5.20;;
5077;SDS011;2557;51.390;7.494;2024-02-04T03:26:56;7.10;;;6.03;;
5077;SDS011;2557;51.390;7.494;2024-02-04T03:29:22;8.57;;;6.90;;
5077;SDS011;2557;51.390;7.494;2024-02-04T03:31:48;7.83;;;6.43;;
5077;SDS011;2557;51.390;7.494;2024-02-04T03:34:14;8.70;;;7.07;;
5077;SDS011;2557;51.390;7.494;2024-02-04T03:36:40;14.17;;;7.70;;
5077;SDS011;2557;51.390;7.494;2024-02-04T03:39:06;8.40;;;7.50;;
5077;SDS011;2557;51.390;7.494;2024-02-04T03:41:32;12.00;;;10.10;;
5077;SDS011;2557;51.390;7.494;2024-02-04T03:43:58;10.63;;;9.30;;
5077;SDS011;2557;51.390;7.494;2024-02-04T03:46:24;15.70;;;10.40;;
5077;SDS011;2557;51.390;7.494;2024-02-04T03:48:50;11.50;;;10.30;;
5077;SDS011;2557;51.390;7.494;2024-02-04T03:51:16;15.43;;;10.90;;
5077;SDS011;2557;51.390;7.494;2024-02-04T03:53:43;16.37;;;12.47;;
5077;SDS011;2557;51.390;7.494;2024-02-04T03:56:09;15.27;;;11.40;;
5077;SDS011;2557;51.390;7.494;2024-02-04T03:58:35;21.07;;;12.93;;
5077;SDS011;2557;51.390;7.494;2024-02-04T04:01:01;20.70;;;14.30;;
5077;SDS011;2557;51.390;7.494;2024-02-04T04:03:27;19.90;;;13.97;;
5077;SDS011;2557;51.390;7.494;2024-02-04T04:05:53;20.63;;;14.90;;
5077;SDS011;2557;51.390;7.494;2024-02-04T04:08:19;18.17;;;14.73;;
5077;SDS011;2557;51.390;7.494;2024-02-04T04:10:45;23.73;;;16.93;;
5077;SDS011;2557;51.390;7.494;2024-02-04T04:13:12;19.07;;;15.67;;
5077;SDS011;2557;51.390;7.494;2024-02-04T04:15:38;24.13;;;14.60;;
5077;SDS011;2557;51.390;7.494;2024-02-04T04:18:04;22.10;;;15.23;;
5077;SDS011;2557;51.390;7.494;2024-02-04T04:20:30;21.13;;;15.80;;
5077;SDS011;2557;51.390;7.494;2024-02-04T04:22:56;28.23;;;17.67;;
5077;SDS011;2557;51.390;7.494;2024-02-04T04:25:22;23.87;;;16.87;;
5077;SDS011;2557;51.390;7.494;2024-02-04T04:27:48;23.57;;;17.00;;
5077;SDS011;2557;51.390;7.494;2024-02-04T04:30:14;21.87;;;16.30;;
5077;SDS011;2557;51.390;7.494;2024-02-04T04:32:40;19.77;;;16.07;;
5077;SDS011;2557;51.390;7.494;2024-02-04T04:35:06;22.30;;;15.63;;
5077;SDS011;2557;51.390;7.494;2024-02-04T04:37:32;23.30;;;16.10;;
5077;SDS011;2557;51.390;7.494;2024-02-04T04:39:58;18.87;;;14.30;;
5077;SDS011;2557;51.390;7.494;2024-02-04T04:42:24;20.03;;;14.10;;
5077;SDS011;2557;51.390;7.494;2024-02-04T04:44:50;18.00;;;13.67;;
5077;SDS011;2557;51.390;7.494;2024-02-04T04:47:16;18.77;;;14.80;;
5077;SDS011;2557;51.390;7.494;2024-02-04T04:49:42;14.70;;;12.40;;
5077;SDS011;2557;51.390;7.494;2024-02-04T04:52:08;15.53;;;11.10;;
5077;SDS011;2557;51.390;7.494;2024-02-04T04:54:34;16.23;;;10.13;;
5077;SDS011;2557;51.390;7.494;2024-02-04T04:57:00;10.07;;;8.97;;
5077;SDS011;2557;51.390;7.494;2024-02-04T04:59:26;8.80;;;7.57;;
5077;SDS011;2557;51.390;7.494;2024-02-04T05:01:52;11.53;;;7.30;;
5077;SDS011;2557;51.390;7.494;2024-02-04T05:04:18;7.57;;;6.83;;
5077;SDS011;2557;51.390;7.494;2024-02-04T05:06:44;8.80;;;7.17;;
5077;SDS011;2557;51.390;7.494;2024-02-04T05:09:10;9.60;;;7.57;;
5077;SDS011;2557;51.390;7.494;2024-02-04T05:11:36;10.87;;;8.80;;
5077;SDS011;2557;51.390;7.494;2024-02-04T05:14:02;12.10;;;8.93;;
5077;SDS011;2557;51.390;7.494;2024-02-04T05:16:28;13.00;;;10.53;;
5077;SDS011;2557;51.390;7.494;2024-02-04T05:18:54;15.50;;;12.33;;
5077;SDS011;2557;51.390;7.494;2024-02-04T05:21:20;18.60;;;12.90;;
5077;SDS011;2557;51.390;7.494;2024-02-04T05:23:46;16.10;;;12.27;;
5077;SDS011;2557;51.390;7.494;2024-02-04T05:26:12;13.50;;;11.53;;
5077;SDS011;2557;51.390;7.494;2024-02-04T05:28:38;15.50;;;12.40;;
5077;SDS011;2557;51.390;7.494;2024-02-04T05:31:04;17.20;;;12.97;;
5077;SDS011;2557;51.390;7.494;2024-02-04T05:33:30;15.70;;;11.83;;
5077;SDS011;2557;51.390;7.494;2024-02-04T05:35:56;18.87;;;13.00;;
5077;SDS011;2557;51.390;7.494;2024-02-04T05:38:22;16.33;;;12.97;;
5077;SDS011;2557;51.390;7.494;2024-02-04T05:40:48;19.47;;;13.60;;
5077;SDS011;2557;51.390;7.494;2024-02-04T05:43:14;18.63;;;14.20;;
5077;SDS011;2557;51.390;7.494;2024-02-04T05:45:41;17.30;;;13.93;;
5077;SDS011;2557;51.390;7.494;2024-02-04T05:48:07;21.53;;;13.60;;
5077;SDS011;2557;51.390;7.494;2024-02-04T05:50:33;18.47;;;14.87;;
5077;SDS011;2557;51.390;7.494;2024-02-04T05:52:59;18.13;;;16.07;;
5077;SDS011;2557;51.390;7.494;2024-02-04T05:55:25;20.17;;;15.33;;
5077;SDS011;2557;51.390;7.494;2024-02-04T05:57:51;25.37;;;16.57;;
5077;SDS011;2557;51.390;7.494;2024-02-04T06:00:17;19.53;;;15.00;;
5077;SDS011;2557;51.390;7.494;2024-02-04T06:02:43;18.60;;;14.87;;
5077;SDS011;2557;51.390;7.494;2024-02-04T06:05:09;17.57;;;14.40;;
5077;SDS011;2557;51.390;7.494;2024-02-04T06:07:36;21.10;;;15.80;;
5077;SDS011;2557;51.390;7.494;2024-02-04T06:10:02;20.97;;;16.50;;
5077;SDS011;2557;51.390;7.494;2024-02-04T06:12:30;22.03;;;16.30;;
5077;SDS011;2557;51.390;7.494;2024-02-04T06:14:56;25.93;;;17.97;;
5077;SDS011;2557;51.390;7.494;2024-02-04T06:17:22;22.27;;;16.90;;
5077;SDS011;2557;51.390;7.494;2024-02-04T06:19:48;24.10;;;16.10;;
5077;SDS011;2557;51.390;7.494;2024-02-04T06:22:14;23.27;;;17.10;;
5077;SDS011;2557;51.390;7.494;2024-02-04T06:24:40;23.07;;;16.80;;
5077;SDS011;2557;51.390;7.494;2024-02-04T06:27:07;26.07;;;17.77;;
5077;SDS011;2557;51.390;7.494;2024-02-04T06:29:33;23.70;;;17.80;;
5077;SDS011;2557;51.390;7.494;2024-02-04T06:31:59;24.97;;;16.30;;
5077;SDS011;2557;51.390;7.494;2024-02-04T06:34:25;21.27;;;15.27;;
5077;SDS011;2557;51.390;7.494;2024-02-04T06:36:52;21.43;;;15.53;;
5077;SDS011;2557;51.390;7.494;2024-02-04T06:39:17;18.43;;;13.20;;
5077;SDS011;2557;51.390;7.494;2024-02-04T06:41:43;17.10;;;12.77;;
5077;SDS011;2557;51.390;7.494;2024-02-04T06:44:11;15.40;;;12.60;;
5077;SDS011;2557;51.390;7.494;2024-02-04T06:46:37;22.17;;;14.33;;
5077;SDS011;2557;51.390;7.494;2024-02-04T06:49:03;16.27;;;13.83;;
5077;SDS011;2557;51.390;7.494;2024-02-04T06:51:29;17.80;;;14.10;;
5077;SDS011;2557;51.390;7.494;2024-02-04T06:53:55;19.03;;;13.20;;
5077;SDS011;2557;51.390;7.494;2024-02-04T06:56:21;20.43;;;15.43;;
5077;SDS011;2557;51.390;7.494;2024-02-04T06:58:47;19.93;;;15.40;;
5077;SDS011;2557;51.390;7.494;2024-02-04T07:01:14;20.80;;;13.97;;
5077;SDS011;2557;51.390;7.494;2024-02-04T07:03:40;22.07;;;13.93;;
5077;SDS011;2557;51.390;7.494;2024-02-04T07:06:06;19.70;;;14.60;;
5077;SDS011;2557;51.390;7.494;2024-02-04T07:08:32;23.13;;;13.60;;
5077;SDS011;2557;51.390;7.494;2024-02-04T07:10:58;22.23;;;14.63;;
5077;SDS011;2557;51.390;7.494;2024-02-04T07:13:24;18.77;;;13.50;;
5077;SDS011;2557;51.390;7.494;2024-02-04T07:15:50;14.37;;;11.00;;
5077;SDS011;2557;51.390;7.494;2024-02-04T07:18:16;18.17;;;11.23;;
5077;SDS011;2557;51.390;7.494;2024-02-04T07:20:46;13.90;;;10.77;;
5077;SDS011;2557;51.390;7.494;2024-02-04T07:23:12;14.90;;;11.63;;
5077;SDS011;2557;51.390;7.494;2024-02-04T07:25:38;13.57;;;10.60;;
5077;SDS011;2557;51.390;7.494;2024-02-04T07:28:04;13.43;;;9.43;;
5077;SDS011;2557;51.390;7.494;2024-02-04T07:30:30;14.67;;;9.97;;
5077;SDS011;2557;51.390;7.494;2024-02-04T07:32:56;15.63;;;8.50;;
5077;SDS011;2557;51.390;7.494;2024-02-04T07:35:23;13.87;;;9.70;;
5077;SDS011;2557;51.390;7.494;2024-02-04T07:37:49;15.23;;;8.70;;
5077;SDS011;2557;51.390;7.494;2024-02-04T07:40:15;10.70;;;8.80;;
5077;SDS011;2557;51.390;7.494;2024-02-04T07:42:41;18.93;;;9.27;;
5077;SDS011;2557;51.390;7.494;2024-02-04T07:45:07;13.67;;;8.80;;
5077;SDS011;2557;51.390;7.494;2024-02-04T07:47:35;10.47;;;8.87;;
5077;SDS011;2557;51.390;7.494;2024-02-04T07:50:01;10.67;;;8.63;;
5077;SDS011;2557;51.390;7.494;2024-02-04T07:52:27;10.57;;;7.47;;
5077;SDS011;2557;51.390;7.494;2024-02-04T07:54:52;10.13;;;7.10;;
5077;SDS011;2557;51.390;7.494;2024-02-04T07:57:18;6.07;;;5.43;;
5077;SDS011;2557;51.390;7.494;2024-02-04T07:59:45;7.70;;;6.97;;
5077;SDS011;2557;51.390;7.494;2024-02-04T08:02:11;13.87;;;5.87;;
5077;SDS011;2557;51.390;7.494;2024-02-04T08:04:39;6.23;;;5.60;;
5077;SDS011;2557;51.390;7.494;2024-02-04T08:07:05;7.03;;;6.37;;
5077;SDS011;2557;51.390;7.494;2024-02-04T08:09:31;9.63;;;6.03;;
5077;SDS011;2557;51.390;7.494;2024-02-04T08:11:57;5.87;;;5.20;;
5077;SDS011;2557;51.390;7.494;2024-02-04T08:14:23;6.03;;;5.50;;
5077;SDS011;2557;51.390;7.494;2024-02-04T08:16:49;6.37;;;5.50;;
5077;SDS011;2557;51.390;7.494;2024-02-04T08:19:16;6.93;;;5.30;;
5077;SDS011;2557;51.390;7.494;2024-02-04T08:21:42;6.40;;;4.10;;
5077;SDS011;2557;51.390;7.494;2024-02-04T08:24:08;5.30;;;4.80;;
5077;SDS011;2557;51.390;7.494;2024-02-04T08:26:34;5.23;;;4.63;;
5077;SDS011;2557;51.390;7.494;2024-02-04T08:29:00;4.37;;;4.00;;
5077;SDS011;2557;51.390;7.494;2024-02-04T08:31:26;4.80;;;3.70;;
5077;SDS011;2557;51.390;7.494;2024-02-04T08:33:52;3.00;;;2.80;;
5077;SDS011;2557;51.390;7.494;2024-02-04T08:36:18;3.60;;;3.30;;
5077;SDS011;2557;51.390;7.494;2024-02-04T08:38:44;4.37;;;3.13;;
5077;SDS011;2557;51.390;7.494;2024-02-04T08:41:10;4.20;;;3.90;;
5077;SDS011;2557;51.390;7.494;2024-02-04T08:43:36;3.97;;;3.67;;
5077;SDS011;2557;51.390;7.494;2024-02-04T08:46:03;3.60;;;3.30;;
5077;SDS011;2557;51.390;7.494;2024-02-04T08:48:29;3.53;;;3.23;;
5077;SDS011;2557;51.390;7.494;2024-02-04T08:50:55;3.97;;;3.67;;
5077;SDS011;2557;51.390;7.494;2024-02-04T08:53:21;3.90;;;3.47;;
5077;SDS011;2557;51.390;7.494;2024-02-04T08:55:48;3.93;;;3.27;;
5077;SDS011;2557;51.390;7.494;2024-02-04T08:58:14;2.87;;;2.60;;
5077;SDS011;2557;51.390;7.494;2024-02-04T09:00:41;3.10;;;2.90;;
5077;SDS011;2557;51.390;7.494;2024-02-04T09:03:07;2.67;;;2.47;;
5077;SDS011;2557;51.390;7.494;2024-02-04T09:05:33;4.87;;;2.90;;
5077;SDS011;2557;51.390;7.494;2024-02-04T09:07:59;2.20;;;2.10;;
5077;SDS011;2557;51.390;7.494;2024-02-04T09:10:26;3.23;;;2.57;;
5077;SDS011;2557;51.390;7.494;2024-02-04T09:12:52;2.57;;;2.37;;
5077;SDS011;2557;51.390;7.494;2024-02-04T09:15:18;2.20;;;2.10;;
5077;SDS011;2557;51.390;7.494;2024-02-04T09:17:44;2.10;;;1.90;;
5077;SDS011;2557;51.390;7.494;2024-02-04T09:20:10;2.50;;;2.30;;
5077;SDS011;2557;51.390;7.494;2024-02-04T09:22:36;2.00;;;1.90;;
5077;SDS011;2557;51.390;7.494;2024-02-04T09:25:04;2.63;;;2.20;;
5077;SDS011;2557;51.390;7.494;2024-02-04T09:27:30;2.40;;;2.30;;
5077;SDS011;2557;51.390;7.494;2024-02-04T09:29:56;2.63;;;2.43;;
5077;SDS011;2557;51.390;7.494;2024-02-04T09:32:23;3.60;;;3.10;;
5077;SDS011;2557;51.390;7.494;2024-02-04T09:34:49;3.13;;;2.93;;
5077;SDS011;2557;51.390;7.494;2024-02-04T09:37:15;2.67;;;2.30;;
5077;SDS011;2557;51.390;7.494;2024-02-04T09:39:41;2.80;;;2.60;;
5077;SDS011;2557;51.390;7.494;2024-02-04T09:42:07;3.97;;;3.27;;
5077;SDS011;2557;51.390;7.494;2024-02-04T09:44:33;8.80;;;3.20;;
5077;SDS011;2557;51.390;7.494;2024-02-04T09:47:01;3.97;;;3.67;;
5077;SDS011;2557;51.390;7.494;2024-02-04T09:49:27;4.63;;;4.33;;
5077;SDS011;2557;51.390;7.494;2024-02-04T09:51:54;8.00;;;5.83;;
5077;SDS011;2557;51.390;7.494;2024-02-04T09:54:20;7.33;;;4.93;;
5077;SDS011;2557;51.390;7.494;2024-02-04T09:56:48;6.90;;;5.80;;
5077;SDS011;2557;51.390;7.494;2024-02-04T09:59:16;11.80;;;5.83;;
5077;SDS011;2557;51.390;7.494;2024-02-04T10:01:42;10.07;;;7.33;;
5077;SDS011;2557;51.390;7.494;2024-02-04T10:04:09;8.83;;;6.77;;
5077;SDS011;2557;51.390;7.494;2024-02-04T10:06:35;8.73;;;7.40;;
5077;SDS011;2557;51.390;7.494;2024-02-04T10:09:01;8.13;;;7.23;;
5077;SDS011;2557;51.390;7.494;2024-02-04T10:11:27;10.33;;;7.30;;
5077;SDS011;2557;51.390;7.494;2024-02-04T10:13:53;7.70;;;6.90;;
5077;SDS011;2557;51.390;7.494;2024-02-04T10:16:19;11.77;;;6.80;;
5077;SDS011;2557;51.390;7.494;2024-02-04T10:18:46;6.67;;;6.00;;
5077;SDS011;2557;51.390;7.494;2024-02-04T10:21:14;6.93;;;6.23;;
5077;SDS011;2557;51.390;7.494;2024-02-04T10:23:41;5.53;;;5.00;;
5077;SDS011;2557;51.390;7.494;2024-02-04T10:26:07;6.23;;;5.63;;
5077;SDS011;2557;51.390;7.494;2024-02-04T10:28:33;4.83;;;4.43;;
5077;SDS011;2557;51.390;7.494;2024-02-04T10:30:59;8.30;;;4.80;;
5077;SDS011;2557;51.390;7.494;2024-02-04T10:33:25;5.23;;;4.70;;
5077;SDS011;2557;51.390;7.494;2024-02-04T10:35:51;5.20;;;4.80;;
5077;SDS011;2557;51.390;7.494;2024-02-04T10:38:17;5.27;;;4.77;;
5077;SDS011;2557;51.390;7.494;2024-02-04T10:40:43;7.37;;;5.37;;
5077;SDS011;2557;51.390;7.494;2024-02-04T10:43:10;8.57;;;5.70;;
5077;SDS011;2557;51.390;7.494;2024-02-04T10:45:37;4.57;;;4.20;;
5077;SDS011;2557;51.390;7.494;2024-02-04T10:48:05;5.37;;;4.80;;
5077;SDS011;2557;51.390;7.494;2024-02-04T10:50:32;4.57;;;4.17;;
5077;SDS011;2557;51.390;7.494;2024-02-04T10:53:03;5.00;;;4.60;;
5077;SDS011;2557;51.390;7.494;2024-02-04T10:55:32;6.13;;;4.80;;
5077;SDS011;2557;51.390;7.494;2024-02-04T10:57:59;5.57;;;4.90;;
5077;SDS011;2557;51.390;7.494;2024-02-04T11:00:25;5.50;;;5.07;;
5077;SDS011;2557;51.390;7.494;2024-02-04T11:02:52;9.47;;;6.03;;
5077;SDS011;2557;51.390;7.494;2024-02-04T11:05:19;7.20;;;6.43;;
5077;SDS011;2557;51.390;7.494;2024-02-04T11:07:45;5.90;;;5.30;;
5077;SDS011;2557;51.390;7.494;2024-02-04T11:10:11;7.17;;;6.47;;
5077;SDS011;2557;51.390;7.494;2024-02-04T11:12:38;7.40;;;6.70;;
5077;SDS011;2557;51.390;7.494;2024-02-04T11:15:07;6.77;;;6.17;;
5077;SDS011;2557;51.390;7.494;2024-02-04T11:17:40;5.73;;;5.33;;
5077;SDS011;2557;51.390;7.494;2024-02-04T11:20:30;8.03;;;6.57;;
5077;SDS011;2557;51.390;7.494;2024-02-04T11:25:53;4.97;;;4.47;;
5077;SDS011;2557;51.390;7.494;2024-02-04T11:28:23;4.43;;;4.03;;
5077;SDS011;2557;51.390;7.494;2024-02-04T11:30:50;4.63;;;4.30;;
5077;SDS011;2557;51.390;7.494;2024-02-04T11:33:17;3.90;;;3.60;;
5077;SDS011;2557;51.390;7.494;2024-02-04T11:35:44;5.97;;;4.33;;
5077;SDS011;2557;51.390;7.494;2024-02-04T11:38:10;4.13;;;3.60;;
5077;SDS011;2557;51.390;7.494;2024-02-04T11:40:38;4.30;;;4.00;;
5077;SDS011;2557;51.390;7.494;2024-02-04T11:43:05;3.90;;;3.70;;
5077;SDS011;2557;51.390;7.494;2024-02-04T11:45:31;5.20;;;4.70;;
5077;SDS011;2557;51.390;7.494;2024-02-04T11:48:01;5.93;;;4.23;;
5077;SDS011;2557;51.390;7.494;2024-02-04T11:50:30;5.10;;;4.60;;
5077;SDS011;2557;51.390;7.494;2024-02-04T11:53:12;5.73;;;5.20;;
5077;SDS011;2557;51.390;7.494;2024-02-04T11:55:39;4.80;;;4.30;;
5077;SDS011;2557;51.390;7.494;2024-02-04T11:58:05;4.90;;;4.60;;
5077;SDS011;2557;51.390;7.494;2024-02-04T12:00:32;4.27;;;4.00;;
5077;SDS011;2557;51.390;7.494;2024-02-04T12:02:59;4.70;;;4.40;;
5077;SDS011;2557;51.390;7.494;2024-02-04T12:05:26;5.20;;;4.80;;
5077;SDS011;2557;51.390;7.494;2024-02-04T12:07:52;7.50;;;5.10;;
5077;SDS011;2557;51.390;7.494;2024-02-04T12:10:19;4.63;;;4.33;;
5077;SDS011;2557;51.390;7.494;2024-02-04T12:12:45;4.57;;;4.17;;
5077;SDS011;2557;51.390;7.494;2024-02-04T12:15:11;4.77;;;4.37;;
5077;SDS011;2557;51.390;7.494;2024-02-04T12:17:37;4.30;;;4.10;;
5077;SDS011;2557;51.390;7.494;2024-02-04T12:20:03;4.00;;;3.80;;
5077;SDS011;2557;51.390;7.494;2024-02-04T12:22:30;3.50;;;2.83;;
5077;SDS011;2557;51.390;7.494;2024-02-04T12:24:57;2.80;;;2.60;;
5077;SDS011;2557;51.390;7.494;2024-02-04T12:27:23;2.40;;;2.30;;
5077;SDS011;2557;51.390;7.494;2024-02-04T12:29:53;2.77;;;2.57;;
5077;SDS011;2557;51.390;7.494;2024-02-04T12:32:19;2.63;;;2.47;;
5077;SDS011;2557;51.390;7.494;2024-02-04T12:34:48;3.47;;;3.17;;
5077;SDS011;2557;51.390;7.494;2024-02-04T12:37:19;2.83;;;2.63;;
5077;SDS011;2557;51.390;7.494;2024-02-04T12:39:45;3.10;;;2.90;;
5077;SDS011;2557;51.390;7.494;2024-02-04T12:42:14;3.50;;;3.20;;
5077;SDS011;2557;51.390;7.494;2024-02-04T12:44:44;3.63;;;3.33;;
5077;SDS011;2557;51.390;7.494;2024-02-04T12:47:10;4.40;;;3.37;;
5077;SDS011;2557;51.390;7.494;2024-02-04T12:49:36;7.67;;;3.73;;
5077;SDS011;2557;51.390;7.494;2024-02-04T12:52:06;6.20;;;3.20;;
5077;SDS011;2557;51.390;7.494;2024-02-04T12:54:42;4.37;;;3.97;;
5077;SDS011;2557;51.390;7.494;2024-02-04T12:57:08;4.30;;;3.90;;
5077;SDS011;2557;51.390;7.494;2024-02-04T12:59:36;4.93;;;4.30;;
5077;SDS011;2557;51.390;7.494;2024-02-04T13:02:03;4.97;;;3.97;;
5077;SDS011;2557;51.390;7.494;2024-02-04T13:07:01;6.10;;;4.93;;
5077;SDS011;2557;51.390;7.494;2024-02-04T13:09:27;5.57;;;4.17;;
5077;SDS011;2557;51.390;7.494;2024-02-04T13:12:02;6.73;;;4.10;;
5077;SDS011;2557;51.390;7.494;2024-02-04T13:14:28;4.33;;;4.03;;
5077;SDS011;2557;51.390;7.494;2024-02-04T13:16:54;4.07;;;3.67;;
5077;SDS011;2557;51.390;7.494;2024-02-04T13:19:20;4.87;;;4.17;;
5077;SDS011;2557;51.390;7.494;2024-02-04T13:21:46;4.03;;;3.50;;
5077;SDS011;2557;51.390;7.494;2024-02-04T13:24:12;5.23;;;3.23;;
5077;SDS011;2557;51.390;7.494;2024-02-04T13:26:38;6.23;;;3.73;;
5077;SDS011;2557;51.390;7.494;2024-02-04T13:29:04;3.60;;;3.30;;
5077;SDS011;2557;51.390;7.494;2024-02-04T13:31:30;4.07;;;3.77;;
5077;SDS011;2557;51.390;7.494;2024-02-04T13:33:57;5.40;;;3.60;;
5077;SDS011;2557;51.390;7.494;2024-02-04T13:36:23;4.33;;;3.10;;
5077;SDS011;2557;51.390;7.494;2024-02-04T13:38:49;3.30;;;3.00;;
5077;SDS011;2557;51.390;7.494;2024-02-04T13:41:15;3.30;;;3.10;;
5077;SDS011;2557;51.390;7.494;2024-02-04T13:43:41;3.00;;;2.77;;
5077;SDS011;2557;51.390;7.494;2024-02-04T13:46:08;3.90;;;3.00;;
5077;SDS011;2557;51.390;7.494;2024-02-04T13:48:34;3.10;;;2.90;;
5077;SDS011;2557;51.390;7.494;2024-02-04T13:51:00;3.00;;;2.80;;
5077;SDS011;2557;51.390;7.494;2024-02-04T13:53:26;3.20;;;3.00;;
5077;SDS011;2557;51.390;7.494;2024-02-04T13:55:52;3.37;;;3.17;;
5077;SDS011;2557;51.390;7.494;2024-02-04T13:58:19;3.00;;;2.70;;
5077;SDS011;2557;51.390;7.494;2024-02-04T14:00:45;4.00;;;2.73;;
5077;SDS011;2557;51.390;7.494;2024-02-04T14:03:11;2.93;;;2.73;;
5077;SDS011;2557;51.390;7.494;2024-02-04T14:05:40;2.90;;;2.60;;
5077;SDS011;2557;51.390;7.494;2024-02-04T14:08:06;2.37;;;2.27;;
5077;SDS011;2557;51.390;7.494;2024-02-04T14:10:33;3.30;;;3.10;;
5077;SDS011;2557;51.390;7.494;2024-02-04T14:12:59;2.80;;;2.57;;
5077;SDS011;2557;51.390;7.494;2024-02-04T14:15:25;4.20;;;3.07;;
5077;SDS011;2557;51.390;7.494;2024-02-04T14:17:51;3.00;;;2.80;;
5077;SDS011;2557;51.390;7.494;2024-02-04T14:20:17;3.40;;;3.10;;
5077;SDS011;2557;51.390;7.494;2024-02-04T14:22:43;3.87;;;3.07;;
5077;SDS011;2557;51.390;7.494;2024-02-04T14:25:10;3.80;;;3.40;;
5077;SDS011;2557;51.390;7.494;2024-02-04T14:27:36;3.47;;;3.17;;
5077;SDS011;2557;51.390;7.494;2024-02-04T14:30:03;6.30;;;4.07;;
5077;SDS011;2557;51.390;7.494;2024-02-04T14:32:29;3.47;;;3.13;;
5077;SDS011;2557;51.390;7.494;2024-02-04T14:34:55;4.03;;;3.40;;
5077;SDS011;2557;51.390;7.494;2024-02-04T14:37:21;4.00;;;3.70;;
5077;SDS011;2557;51.390;7.494;2024-02-04T14:39:47;3.53;;;3.33;;
5077;SDS011;2557;51.390;7.494;2024-02-04T14:42:14;3.73;;;3.33;;
5077;SDS011;2557;51.390;7.494;2024-02-04T14:44:40;4.60;;;4.13;;
5077;SDS011;2557;51.390;7.494;2024-02-04T14:47:06;4.00;;;3.70;;
5077;SDS011;2557;51.390;7.494;2024-02-04T14:49:32;3.30;;;3.07;;
5077;SDS011;2557;51.390;7.494;2024-02-04T14:51:58;3.87;;;3.57;;
5077;SDS011;2557;51.390;7.494;2024-02-04T14:54:24;3.20;;;3.00;;
5077;SDS011;2557;51.390;7.494;2024-02-04T14:56:52;3.17;;;2.87;;
5077;SDS011;2557;51.390;7.494;2024-02-04T14:59:18;3.77;;;3.40;;
5077;SDS011;2557;51.390;7.494;2024-02-04T15:01:44;3.63;;;3.40;;
5077;SDS011;2557;51.390;7.494;2024-02-04T15:04:14;5.87;;;5.37;;
5077;SDS011;2557;51.390;7.494;2024-02-04T15:06:40;5.30;;;4.90;;
5077;SDS011;2557;51.390;7.494;2024-02-04T15:09:07;6.40;;;5.80;;
5077;SDS011;2557;51.390;7.494;2024-02-04T15:11:35;7.63;;;5.67;;
5077;SDS011;2557;51.390;7.494;2024-02-04T15:14:01;7.03;;;5.87;;
5077;SDS011;2557;51.390;7.494;2024-02-04T15:16:27;5.63;;;5.23;;